createdAt,value
2022-07-28T00:01:24.417Z,11.20
2022-07-28T00:03:51.218Z,11.20
2022-07-28T00:06:17.832Z,11.20
2022-07-28T00:08:44.425Z,11.10
2022-07-28T00:11:11.042Z,11.00
2022-07-28T00:13:37.874Z,11.00
2022-07-28T00:16:04.588Z,11.00
2022-07-28T00:18:31.192Z,11.00
2022-07-28T00:20:58.120Z,11.00
2022-07-28T00:23:39.287Z,11.00
2022-07-28T00:26:06.942Z,11.10
2022-07-28T00:28:33.523Z,11.30
2022-07-28T00:31:05.867Z,11.30
2022-07-28T00:33:33.154Z,11.40
2022-07-28T00:35:59.919Z,11.50
2022-07-28T00:38:26.561Z,11.50
2022-07-28T00:41:11.606Z,11.50
2022-07-28T00:43:44.840Z,11.40
2022-07-28T00:46:11.683Z,11.30
2022-07-28T00:48:39.160Z,11.20
2022-07-28T00:51:06.523Z,11.10
2022-07-28T00:53:33.122Z,11.00
2022-07-28T00:56:05.631Z,10.90
2022-07-28T00:58:33.097Z,10.80
2022-07-28T01:00:59.762Z,10.70
2022-07-28T01:03:26.349Z,10.70
2022-07-28T01:05:54.727Z,10.70
2022-07-28T01:08:27.936Z,10.80
2022-07-28T01:10:57.605Z,11.00
2022-07-28T01:13:32.891Z,11.10
2022-07-28T01:16:01.891Z,11.20
2022-07-28T01:18:47.453Z,11.30
2022-07-28T01:21:15.570Z,11.40
2022-07-28T01:23:42.187Z,11.50
2022-07-28T01:26:11.762Z,11.50
2022-07-28T01:28:41.462Z,11.60
2022-07-28T01:31:08.350Z,11.70
2022-07-28T01:33:38.565Z,11.70
2022-07-28T01:36:12.350Z,11.70
2022-07-28T01:38:38.920Z,11.70
2022-07-28T01:41:05.602Z,11.70
2022-07-28T01:43:33.317Z,11.80
2022-07-28T01:46:00.122Z,11.80
2022-07-28T01:48:26.974Z,11.90
2022-07-28T01:50:54.404Z,11.90
2022-07-28T01:53:21.012Z,11.90
2022-07-28T01:55:47.589Z,11.90
2022-07-28T01:58:14.236Z,11.90
2022-07-28T02:00:42.669Z,11.90
2022-07-28T02:03:10.750Z,12.00
2022-07-28T02:05:37.388Z,12.00
2022-07-28T02:08:04.315Z,12.00
2022-07-28T02:10:31.147Z,11.90
2022-07-28T02:12:57.942Z,12.00
2022-07-28T02:15:24.523Z,12.00
2022-07-28T02:17:51.575Z,12.00
2022-07-28T02:20:18.149Z,12.00
2022-07-28T02:22:44.756Z,12.00
2022-07-28T02:25:18.229Z,12.00
2022-07-28T02:27:47.441Z,12.00
2022-07-28T02:30:18.124Z,12.00
2022-07-28T02:32:51.554Z,12.00
2022-07-28T02:35:27.905Z,12.10
2022-07-28T02:38:02.020Z,12.10
2022-07-28T02:40:30.256Z,12.10
2022-07-28T02:42:57.049Z,12.10
2022-07-28T02:45:25.450Z,12.00
2022-07-28T02:47:52.680Z,12.00
2022-07-28T02:50:20.637Z,12.00
2022-07-28T02:52:47.387Z,12.00
2022-07-28T02:55:14.838Z,11.90
2022-07-28T02:57:41.573Z,11.90
2022-07-28T03:00:08.518Z,11.90
2022-07-28T03:02:36.778Z,11.80
2022-07-28T03:05:07.671Z,11.70
2022-07-28T03:07:41.255Z,11.70
2022-07-28T03:10:18.480Z,11.60
2022-07-28T03:13:01.263Z,11.50
2022-07-28T03:15:27.917Z,11.40
2022-07-28T03:17:54.753Z,11.40
2022-07-28T03:20:21.413Z,11.40
2022-07-28T03:22:48.209Z,11.40
2022-07-28T03:25:20.519Z,11.40
2022-07-28T03:27:48.487Z,11.50
2022-07-28T03:30:15.585Z,11.80
2022-07-28T03:32:45.149Z,11.90
2022-07-28T03:35:12.815Z,11.90
2022-07-28T03:37:59.150Z,11.70
2022-07-28T03:40:26.853Z,11.60
2022-07-28T03:42:53.501Z,11.50
2022-07-28T03:45:20.170Z,11.30
2022-07-28T03:47:53.624Z,11.30
2022-07-28T03:50:23.662Z,11.20
2022-07-28T03:52:50.359Z,11.20
2022-07-28T03:55:16.991Z,11.40
2022-07-28T03:57:43.580Z,11.50
2022-07-28T04:00:10.807Z,11.80
2022-07-28T04:02:37.545Z,12.20
2022-07-28T04:05:04.385Z,12.60
2022-07-28T04:07:31.000Z,13.00
2022-07-28T04:09:57.773Z,13.40
2022-07-28T04:12:24.569Z,13.40
2022-07-28T04:14:51.406Z,13.30
2022-07-28T04:17:18.025Z,13.00
2022-07-28T04:19:44.608Z,12.90
2022-07-28T04:22:11.237Z,12.70
2022-07-28T04:24:37.815Z,12.70
2022-07-28T04:27:04.467Z,12.90
2022-07-28T04:29:31.106Z,13.10
2022-07-28T04:31:57.802Z,13.10
2022-07-28T04:34:24.406Z,13.00
2022-07-28T04:36:52.106Z,13.20
2022-07-28T04:39:18.710Z,13.50
2022-07-28T04:41:46.066Z,13.60
2022-07-28T04:44:13.192Z,14.20
2022-07-28T04:46:40.205Z,15.00
2022-07-28T04:49:06.960Z,15.00
2022-07-28T04:51:33.808Z,15.20
2022-07-28T04:54:00.466Z,15.50
2022-07-28T04:56:27.703Z,16.40
2022-07-28T04:58:54.421Z,17.40
2022-07-28T05:01:21.892Z,18.10
2022-07-28T05:03:48.755Z,19.00
2022-07-28T05:06:15.464Z,19.80
2022-07-28T05:08:42.392Z,20.50
2022-07-28T05:11:09.045Z,21.30
2022-07-28T05:13:35.745Z,21.20
2022-07-28T05:16:02.570Z,21.20
2022-07-28T05:18:29.429Z,21.60
2022-07-28T05:20:56.164Z,22.20
2022-07-28T05:23:22.930Z,22.10
2022-07-28T05:25:49.545Z,22.40
2022-07-28T05:28:17.079Z,23.00
2022-07-28T05:30:43.838Z,23.50
2022-07-28T05:33:10.483Z,23.80
2022-07-28T05:35:37.126Z,23.90
2022-07-28T05:38:07.581Z,24.30
2022-07-28T05:40:37.221Z,24.70
2022-07-28T05:43:03.943Z,25.00
2022-07-28T05:45:30.697Z,24.70
2022-07-28T05:47:57.397Z,24.40
2022-07-28T05:50:25.322Z,24.30
2022-07-28T05:52:52.029Z,24.50
2022-07-28T05:55:18.797Z,24.60
2022-07-28T05:57:45.572Z,25.00
2022-07-28T06:00:13.411Z,24.60
2022-07-28T06:02:40.506Z,24.00
2022-07-28T06:05:07.422Z,23.60
2022-07-28T06:07:43.766Z,23.60
2022-07-28T06:10:14.805Z,24.10
2022-07-28T06:12:42.017Z,23.70
2022-07-28T06:15:11.859Z,23.10
2022-07-28T06:17:38.476Z,23.00
2022-07-28T06:20:05.541Z,23.30
2022-07-28T06:22:42.685Z,23.90
2022-07-28T06:25:13.142Z,24.40
2022-07-28T06:27:39.823Z,25.50
2022-07-28T06:30:07.040Z,25.10
2022-07-28T06:32:33.678Z,24.60
2022-07-28T06:35:00.305Z,24.10
2022-07-28T06:37:26.965Z,24.40
2022-07-28T06:39:53.567Z,25.00
2022-07-28T06:42:20.226Z,25.50
2022-07-28T06:44:58.471Z,25.50
2022-07-28T06:47:26.235Z,25.10
2022-07-28T06:49:52.851Z,25.20
2022-07-28T06:52:20.771Z,25.20
2022-07-28T06:54:48.774Z,25.30
2022-07-28T06:57:16.957Z,25.30
2022-07-28T06:59:43.632Z,24.80
2022-07-28T07:02:10.261Z,24.30
2022-07-28T07:04:37.042Z,24.40
2022-07-28T07:07:03.823Z,25.10
2022-07-28T07:09:41.608Z,25.60
2022-07-28T07:12:08.416Z,26.20
2022-07-28T07:14:35.114Z,26.60
2022-07-28T07:17:01.778Z,26.60
2022-07-28T07:19:28.353Z,26.80
2022-07-28T07:21:55.724Z,27.20
2022-07-28T07:24:22.484Z,27.40
2022-07-28T07:26:49.922Z,27.50
2022-07-28T07:29:16.529Z,27.40
2022-07-28T07:31:43.241Z,27.40
2022-07-28T07:34:10.111Z,28.20
2022-07-28T07:36:36.695Z,28.40
2022-07-28T07:39:03.326Z,28.50
2022-07-28T07:41:29.905Z,28.20
2022-07-28T07:43:57.590Z,27.50
2022-07-28T07:46:24.250Z,26.80
2022-07-28T07:48:51.141Z,27.20
2022-07-28T07:51:17.773Z,27.00
2022-07-28T07:53:44.393Z,27.40
2022-07-28T07:56:11.405Z,27.40
2022-07-28T07:58:38.231Z,26.90
2022-07-28T08:01:04.849Z,26.40
2022-07-28T08:03:31.668Z,26.40
2022-07-28T08:05:59.459Z,26.00
2022-07-28T08:08:27.010Z,25.70
2022-07-28T08:10:54.270Z,25.60
2022-07-28T08:13:20.940Z,25.90
2022-07-28T08:15:47.814Z,25.80
2022-07-28T08:18:15.135Z,25.90
2022-07-28T08:20:41.757Z,25.70
2022-07-28T08:23:08.369Z,26.40
2022-07-28T08:25:35.358Z,25.80
2022-07-28T08:28:01.966Z,25.80
2022-07-28T08:30:32.418Z,25.90
2022-07-28T08:32:59.818Z,25.60
2022-07-28T08:35:35.389Z,25.20
2022-07-28T08:38:05.613Z,25.10
2022-07-28T08:40:32.543Z,24.50
2022-07-28T08:43:23.198Z,24.30
2022-07-28T08:45:52.513Z,24.30
2022-07-28T08:48:21.747Z,23.30
2022-07-28T08:50:48.323Z,22.70
2022-07-28T08:53:15.374Z,22.40
2022-07-28T08:55:42.153Z,22.50
2022-07-28T08:58:08.765Z,22.50
2022-07-28T09:00:35.351Z,22.50
2022-07-28T09:03:03.377Z,22.10
2022-07-28T09:05:30.159Z,22.20
2022-07-28T09:07:56.813Z,22.20
2022-07-28T09:10:23.447Z,22.20
2022-07-28T09:12:50.315Z,22.30
2022-07-28T09:15:16.922Z,22.20
2022-07-28T09:17:43.561Z,22.20
2022-07-28T09:20:11.457Z,22.20
2022-07-28T09:22:58.552Z,22.00
2022-07-28T09:25:25.236Z,22.20
2022-07-28T09:27:51.991Z,22.30
2022-07-28T09:30:31.455Z,22.50
2022-07-28T09:33:42.452Z,22.50
2022-07-28T09:36:03.886Z,22.40
2022-07-28T09:38:30.693Z,22.60
2022-07-28T09:40:58.425Z,22.60
2022-07-28T09:43:31.955Z,22.90
2022-07-28T09:46:05.555Z,23.10
2022-07-28T09:48:32.655Z,23.00
2022-07-28T09:51:09.497Z,23.10
2022-07-28T09:53:36.139Z,23.10
2022-07-28T09:56:02.906Z,23.20
2022-07-28T09:58:30.491Z,23.40
2022-07-28T10:01:04.330Z,23.60
2022-07-28T10:03:31.002Z,23.50
2022-07-28T10:05:59.077Z,23.50
2022-07-28T10:08:38.810Z,23.60
2022-07-28T10:11:08.811Z,23.60
2022-07-28T10:13:35.459Z,23.70
2022-07-28T10:16:11.907Z,24.00
2022-07-28T10:18:39.964Z,24.10
2022-07-28T10:21:08.037Z,24.00
2022-07-28T10:23:35.602Z,24.00
2022-07-28T10:26:02.229Z,24.40
2022-07-28T10:28:29.094Z,24.60
2022-07-28T10:30:55.707Z,24.60
2022-07-28T10:33:22.385Z,24.80
2022-07-28T10:35:55.150Z,25.00
2022-07-28T10:38:22.452Z,25.00
2022-07-28T10:40:49.068Z,25.00
2022-07-28T10:43:15.731Z,24.80
2022-07-28T10:46:04.478Z,24.40
2022-07-28T10:48:28.999Z,24.40
2022-07-28T10:50:55.600Z,24.20
2022-07-28T10:53:34.308Z,24.30
2022-07-28T10:56:05.515Z,24.30
2022-07-28T10:58:50.921Z,24.50
2022-07-28T11:01:48.220Z,24.60
2022-07-28T11:04:34.122Z,24.60
2022-07-28T11:07:10.774Z,24.50
2022-07-28T11:09:37.373Z,24.60
2022-07-28T11:12:04.273Z,24.60
2022-07-28T11:14:39.381Z,24.50
2022-07-28T11:17:10.594Z,24.60
2022-07-28T11:20:06.792Z,24.70
2022-07-28T11:22:32.684Z,24.60
2022-07-28T11:25:01.055Z,24.90
2022-07-28T11:27:54.622Z,25.30
2022-07-28T11:30:28.643Z,25.20
2022-07-28T11:32:55.383Z,25.40
2022-07-28T11:35:25.568Z,25.30
2022-07-28T11:38:01.946Z,25.50
2022-07-28T11:40:29.361Z,25.90
2022-07-28T11:43:14.914Z,25.90
2022-07-28T11:45:52.728Z,25.80
2022-07-28T11:48:23.122Z,25.60
2022-07-28T11:51:05.192Z,25.60
2022-07-28T11:53:50.430Z,26.00
2022-07-28T11:56:26.659Z,26.10
2022-07-28T11:58:56.712Z,26.10
2022-07-28T12:01:23.366Z,26.10
2022-07-28T12:03:54.802Z,26.10
2022-07-28T12:06:28.765Z,25.90
2022-07-28T12:09:00.189Z,25.90
2022-07-28T12:11:27.441Z,25.60
2022-07-28T12:14:00.980Z,25.90
2022-07-28T12:16:27.958Z,26.10
2022-07-28T12:18:54.832Z,26.00
2022-07-28T12:21:47.548Z,26.00
2022-07-28T12:24:16.357Z,25.70
2022-07-28T12:26:49.136Z,25.70
2022-07-28T12:29:16.754Z,25.60
2022-07-28T12:31:55.863Z,25.50
2022-07-28T12:34:28.581Z,25.50
2022-07-28T12:36:58.547Z,25.80
2022-07-28T12:39:26.094Z,26.00
2022-07-28T12:42:06.023Z,26.20
2022-07-28T12:44:36.011Z,26.40
2022-07-28T12:47:02.829Z,26.50
2022-07-28T12:49:29.476Z,26.40
2022-07-28T12:51:58.489Z,26.30
2022-07-28T12:54:35.572Z,26.30
2022-07-28T12:57:02.343Z,26.20
2022-07-28T12:59:32.660Z,26.40
2022-07-28T13:01:59.513Z,26.30
2022-07-28T13:04:39.662Z,26.00
2022-07-28T13:07:09.820Z,26.20
2022-07-28T13:09:47.991Z,26.30
2022-07-28T13:12:20.928Z,26.40
2022-07-28T13:14:48.645Z,26.30
2022-07-28T13:17:15.296Z,26.10
2022-07-28T13:19:41.964Z,26.00
2022-07-28T13:22:09.231Z,26.00
2022-07-28T13:24:36.487Z,26.10
2022-07-28T13:27:03.534Z,26.40
2022-07-28T13:29:34.385Z,26.40
2022-07-28T13:32:01.339Z,26.30
2022-07-28T13:34:28.409Z,26.40
2022-07-28T13:36:56.965Z,26.40
2022-07-28T13:39:23.677Z,26.60
2022-07-28T13:41:58.377Z,26.60
2022-07-28T13:44:26.543Z,26.60
2022-07-28T13:46:53.204Z,26.70
2022-07-28T13:49:22.702Z,26.80
2022-07-28T13:51:51.171Z,27.00
2022-07-28T13:54:18.870Z,26.90
2022-07-28T13:56:46.049Z,27.00
2022-07-28T13:59:13.676Z,26.60
2022-07-28T14:01:43.725Z,26.50
2022-07-28T14:04:17.501Z,26.50
2022-07-28T14:06:47.343Z,26.60
2022-07-28T14:09:18.569Z,26.80
2022-07-28T14:11:49.763Z,26.70
2022-07-28T14:14:23.877Z,26.60
2022-07-28T14:16:54.361Z,26.60
2022-07-28T14:19:23.347Z,26.70
2022-07-28T14:22:12.234Z,26.80
2022-07-28T14:24:40.459Z,26.60
2022-07-28T14:27:07.045Z,26.40
2022-07-28T14:29:33.844Z,26.50
2022-07-28T14:32:00.481Z,26.70
2022-07-28T14:34:27.137Z,26.60
2022-07-28T14:36:56.548Z,26.40
2022-07-28T14:39:23.239Z,26.40
2022-07-28T14:41:50.726Z,26.40
2022-07-28T14:44:24.132Z,26.20
2022-07-28T14:46:51.467Z,26.20
2022-07-28T14:49:18.244Z,26.30
2022-07-28T14:51:45.070Z,26.50
2022-07-28T14:54:12.325Z,26.70
2022-07-28T14:56:39.665Z,26.80
2022-07-28T14:59:06.383Z,26.90
2022-07-28T15:01:36.183Z,26.90
2022-07-28T15:04:03.455Z,26.80
2022-07-28T15:06:30.071Z,26.60
2022-07-28T15:08:58.005Z,26.50
2022-07-28T15:11:24.681Z,26.50
2022-07-28T15:13:51.330Z,26.30
2022-07-28T15:16:18.017Z,26.30
2022-07-28T15:18:45.105Z,26.10
2022-07-28T15:21:15.846Z,26.20
2022-07-28T15:23:42.817Z,26.20
2022-07-28T15:26:09.805Z,26.20
2022-07-28T15:28:36.595Z,26.10
2022-07-28T15:31:03.581Z,26.10
2022-07-28T15:33:32.089Z,26.10
2022-07-28T15:35:59.855Z,26.20
2022-07-28T15:38:27.633Z,26.20
2022-07-28T15:40:54.526Z,26.30
2022-07-28T15:43:23.748Z,26.40
2022-07-28T15:45:50.881Z,26.60
2022-07-28T15:48:17.542Z,26.60
2022-07-28T15:50:48.400Z,26.60
2022-07-28T15:53:18.270Z,26.40
2022-07-28T15:55:50.557Z,26.40
2022-07-28T15:58:19.833Z,26.30
2022-07-28T16:00:46.438Z,25.90
2022-07-28T16:03:13.265Z,25.90
2022-07-28T16:05:40.152Z,26.10
2022-07-28T16:08:06.765Z,26.00
2022-07-28T16:10:33.558Z,26.00
2022-07-28T16:13:00.235Z,25.90
2022-07-28T16:15:27.114Z,25.80
2022-07-28T16:17:54.186Z,25.50
2022-07-28T16:20:20.827Z,25.40
2022-07-28T16:22:47.448Z,25.40
2022-07-28T16:25:17.206Z,25.40
2022-07-28T16:27:44.326Z,25.30
2022-07-28T16:30:14.059Z,25.30
2022-07-28T16:32:40.651Z,25.40
2022-07-28T16:35:07.642Z,25.40
2022-07-28T16:37:35.709Z,25.40
2022-07-28T16:40:03.462Z,25.50
2022-07-28T16:42:30.146Z,25.60
2022-07-28T16:44:57.200Z,25.80
2022-07-28T16:47:24.016Z,25.90
2022-07-28T16:49:50.657Z,25.80
2022-07-28T16:52:17.431Z,25.80
2022-07-28T16:54:44.088Z,26.10
2022-07-28T16:57:12.338Z,26.10
2022-07-28T16:59:48.096Z,26.10
2022-07-28T17:02:15.570Z,26.10
2022-07-28T17:04:42.599Z,26.00
2022-07-28T17:07:09.276Z,25.80
2022-07-28T17:09:36.036Z,25.60
2022-07-28T17:12:03.039Z,25.50
2022-07-28T17:14:29.676Z,25.40
2022-07-28T17:16:56.355Z,25.30
2022-07-28T17:19:22.977Z,25.10
2022-07-28T17:21:49.638Z,25.10
2022-07-28T17:24:16.620Z,24.90
2022-07-28T17:29:30.237Z,24.80
2022-07-28T17:31:56.917Z,24.80
2022-07-28T17:34:24.020Z,24.70
2022-07-28T17:36:50.795Z,24.60
2022-07-28T17:39:17.517Z,24.50
2022-07-28T17:41:44.101Z,24.50
2022-07-28T17:44:10.746Z,24.40
2022-07-28T17:46:37.999Z,24.40
2022-07-28T17:49:05.814Z,24.30
2022-07-28T17:51:32.618Z,24.30
2022-07-28T17:53:59.345Z,24.10
2022-07-28T17:56:26.147Z,24.10
2022-07-28T17:58:52.758Z,24.00
2022-07-28T18:01:19.398Z,23.90
2022-07-28T18:03:58.594Z,23.90
2022-07-28T18:06:34.812Z,23.80
2022-07-28T18:09:06.404Z,23.70
2022-07-28T18:11:35.285Z,23.70
2022-07-28T18:14:05.513Z,23.60
2022-07-28T18:16:34.025Z,23.60
2022-07-28T18:19:01.001Z,23.60
2022-07-28T18:21:27.882Z,23.50
2022-07-28T18:23:54.866Z,23.40
2022-07-28T18:26:21.983Z,23.30
2022-07-28T18:28:49.059Z,23.20
2022-07-28T18:31:15.774Z,23.10
2022-07-28T18:33:42.558Z,23.00
2022-07-28T18:36:09.396Z,23.00
2022-07-28T18:38:36.068Z,23.00
2022-07-28T18:41:02.678Z,22.90
2022-07-28T18:43:29.447Z,22.80
2022-07-28T18:45:56.164Z,22.70
2022-07-28T18:48:25.640Z,22.60
2022-07-28T18:50:52.551Z,22.50
2022-07-28T18:53:19.444Z,22.40
2022-07-28T18:55:46.159Z,22.40
2022-07-28T18:58:14.623Z,22.30
2022-07-28T19:00:41.250Z,22.30
2022-07-28T19:03:08.169Z,22.10
2022-07-28T19:05:36.972Z,22.00
2022-07-28T19:08:04.655Z,22.00
2022-07-28T19:10:32.537Z,21.90
2022-07-28T19:12:59.380Z,21.80
2022-07-28T19:15:26.197Z,21.70
2022-07-28T19:18:10.229Z,21.70
2022-07-28T19:20:38.998Z,21.60
2022-07-28T19:23:06.483Z,21.50
2022-07-28T19:25:35.985Z,21.40
2022-07-28T19:28:03.479Z,21.40
2022-07-28T19:30:31.886Z,21.30
2022-07-28T19:32:58.617Z,21.20
2022-07-28T19:35:25.282Z,21.10
2022-07-28T19:37:53.632Z,21.00
2022-07-28T19:40:20.244Z,21.00
2022-07-28T19:42:48.500Z,21.00
2022-07-28T19:45:15.269Z,20.90
2022-07-28T19:47:42.568Z,20.90
2022-07-28T19:50:09.291Z,20.80
2022-07-28T19:52:35.971Z,20.80
2022-07-28T19:55:05.135Z,20.70
2022-07-28T19:57:32.726Z,20.70
2022-07-28T19:59:59.343Z,20.70
2022-07-28T20:02:26.030Z,20.60
2022-07-28T20:04:52.716Z,20.60
2022-07-28T20:07:19.366Z,20.60
2022-07-28T20:09:46.209Z,20.60
2022-07-28T20:12:12.794Z,20.60
2022-07-28T20:14:39.421Z,20.50
2022-07-28T20:17:06.134Z,20.50
2022-07-28T20:19:33.005Z,20.40
2022-07-28T20:21:59.618Z,20.40
2022-07-28T20:24:27.036Z,20.40
2022-07-28T20:26:53.684Z,20.40
2022-07-28T20:29:20.493Z,20.30
2022-07-28T20:31:49.553Z,20.20
2022-07-28T20:34:16.533Z,20.10
2022-07-28T20:36:43.376Z,20.10
2022-07-28T20:39:27.885Z,20.00
2022-07-28T20:41:56.742Z,19.90
2022-07-28T20:44:30.850Z,19.80
2022-07-28T20:47:00.186Z,19.70
2022-07-28T20:49:28.331Z,19.60
2022-07-28T20:51:55.300Z,19.50
2022-07-28T20:54:22.517Z,19.40
2022-07-28T20:56:49.110Z,19.40
2022-07-28T20:59:15.788Z,19.30
2022-07-28T21:01:42.445Z,19.20
2022-07-28T21:04:11.317Z,19.20
2022-07-28T21:06:38.206Z,19.20
2022-07-28T21:09:05.233Z,19.10
2022-07-28T21:11:34.694Z,19.10
2022-07-28T21:14:01.850Z,19.10
2022-07-28T21:16:28.873Z,19.10
2022-07-28T21:18:55.577Z,19.10
2022-07-28T21:21:22.247Z,19.10
2022-07-28T21:23:49.381Z,19.20
2022-07-28T21:26:16.186Z,19.30
2022-07-28T21:29:01.581Z,19.30
2022-07-28T21:31:28.189Z,19.30
2022-07-28T21:33:54.813Z,19.30
2022-07-28T21:36:21.413Z,19.30
2022-07-28T21:38:48.222Z,19.20
2022-07-28T21:41:14.816Z,19.20
2022-07-28T21:43:41.467Z,19.10
2022-07-28T21:46:08.146Z,19.10
2022-07-28T21:48:35.096Z,19.10
2022-07-28T21:51:01.790Z,19.10
2022-07-28T21:53:28.438Z,19.10
2022-07-28T21:55:56.822Z,19.10
2022-07-28T21:58:23.453Z,19.20
2022-07-28T22:00:50.318Z,19.20
2022-07-28T22:03:17.018Z,19.20
2022-07-28T22:05:43.683Z,19.20
2022-07-28T22:08:10.839Z,19.20
2022-07-28T22:10:37.436Z,19.10
2022-07-28T22:13:04.250Z,19.00
2022-07-28T22:15:30.913Z,18.90
2022-07-28T22:17:57.516Z,18.90
2022-07-28T22:20:24.164Z,18.90
2022-07-28T22:22:50.813Z,18.90
2022-07-28T22:25:17.393Z,18.90
2022-07-28T22:27:44.042Z,18.90
2022-07-28T22:30:10.829Z,18.90
2022-07-28T22:32:37.460Z,18.90
2022-07-28T22:35:04.187Z,18.90
2022-07-28T22:37:30.826Z,19.00
2022-07-28T22:39:57.428Z,19.00
2022-07-28T22:42:24.238Z,18.90
2022-07-28T22:44:50.840Z,18.90
2022-07-28T22:47:17.466Z,18.90
2022-07-28T22:49:44.074Z,18.90
2022-07-28T22:52:10.705Z,18.90
2022-07-28T22:54:38.894Z,18.90
2022-07-28T22:57:06.149Z,18.90
2022-07-28T22:59:35.702Z,18.80
2022-07-28T23:02:06.932Z,18.80
2022-07-28T23:04:33.667Z,18.80
2022-07-28T23:07:00.382Z,18.80
2022-07-28T23:09:27.191Z,18.80
2022-07-28T23:11:55.552Z,18.80
2022-07-28T23:14:23.018Z,18.80
2022-07-28T23:16:49.900Z,18.80
2022-07-28T23:19:18.652Z,18.80
2022-07-28T23:21:45.466Z,18.80
2022-07-28T23:24:12.457Z,18.80
2022-07-28T23:26:39.364Z,18.70
2022-07-28T23:29:05.957Z,18.70
2022-07-28T23:31:32.640Z,18.70
2022-07-28T23:33:59.350Z,18.70
2022-07-28T23:36:27.908Z,18.70
2022-07-28T23:38:55.564Z,18.70
2022-07-28T23:41:22.216Z,18.60
2022-07-28T23:43:48.873Z,18.60
2022-07-28T23:46:15.512Z,18.60
2022-07-28T23:48:42.537Z,18.60
2022-07-28T23:51:09.595Z,18.50
2022-07-28T23:53:37.196Z,18.50
2022-07-28T23:56:03.909Z,18.50
2022-07-28T23:58:30.556Z,18.50
